EDFH/HHN METAR and TAF weather

Enter ICAO airport designator
Station Type Date Time Source
EDFH METAR 2022/06/25 23:20 UTC NOAA

EDFH 252320Z 16007KT CAVOK 16/14 Q1014


Station Type Date Time Source
EDFH Decoded METAR 2022/06/25 23:20 UTC NOAA

Hahn, Germany (EDFH) 49-57N 007-16E 498M
Jun 25, 2022 - 07:20 PM EDT / 2022.06.25 2320 UTC
Wind: from the SSE (160 degrees) at 8 MPH (7 KT):0
Visibility: greater than 7 mile(s):0
Temperature: 60 F (16 C)
Dew Point: 57 F (14 C)
Relative Humidity: 87%
Pressure (altimeter): 29.94 in. Hg (1014 hPa)
ob: EDFH 252320Z 16007KT CAVOK 16/14 Q1014
cycle: 23

Station Type Date Time Source
EDFH TAF 2022/06/25 21:43 UTC NOAA

TAF
AMD EDFH 252131Z 2521/2618 16007KT CAVOK
BECMG 2521/2523 24007KT
TEMPO 2521/2524 SHRA BKN030CB PROB40
TEMPO 2522/2524 25020G35KT 3000 TSRA BKN008 BKN020CB PROB40
TEMPO 2607/2612 4000 SHRA BKN010 BKN025CB
BECMG 2612/2615 33005KT PROB30
TEMPO 2612/2618 4000 TSRA BKN010 BKN045CB

Example: see airport list